Edzard Schulte — 2CVX9 — position and weather

sailwx.info

Track history (hours):
 
Tides and Currents Weather Stations Pressure Air Temp Water Temp Dewpoint Dewpoint Depression Visibility Wind Speed Wind Dir Waves Ship Positions

Edzard Schulte

Last reported at 2016-Sep-30 03:34 UTC. Time now 2016-Sep-30 20:19 UTC.
Position N 43°13' W 079°13'.

Length 145 m; draft 7.1 m.

Type: Tanker. MMSI: 235076245.

Date/timePositionNaut miles runAvg speedWind from/ knotsBaromVisibWave heightAir tempDewpointWater temp
2016-Sep-30 03:34N 43°13' W 079°13'0 0.2
2016-Sep-30 02:24N 43°14' W 079°13'0 0.0
2016-Sep-29 20:30N 43°14' W 079°13'0 0.0
2016-Sep-29 19:30N 43°14' W 079°13'253 9.0
2016-Sep-28 15:20N 45°14' W 074°01'12 4.2
2016-Sep-28 12:33N 45°22' W 073°50'50 5.6
2016-Sep-28 03:33N 46°03' W 073°08'10 9.9
2016-Sep-28 02:33N 46°09' W 072°57'  
2016-Sep-22 04:26N 38°47' W 075°01'910.7
2016-Sep-22 03:34N 38°55' W 075°06'4213.6
2016-Sep-22 00:30N 39°31' W 075°33'1111.8
2016-Sep-21 23:33N 39°42' W 075°31'1010.4
2016-Sep-21 22:33N 39°50' W 075°22'8 2.7
2016-Sep-21 19:33N 39°54' W 075°12'0 0.0
2016-Sep-21 16:30N 39°54' W 075°12'0 0.0
2016-Sep-21 09:33N 39°54' W 075°12'0 0.0
2016-Sep-21 08:33N 39°54' W 075°12'0 0.0
2016-Sep-21 05:33N 39°54' W 075°12'0 0.0
2016-Sep-21 03:33N 39°54' W 075°12'0 0.0
2016-Sep-21 02:33N 39°54' W 075°12'0 0.0
2016-Sep-20 17:33N 39°54' W 075°12'0 0.0
2016-Sep-20 14:33N 39°54' W 075°12'0 0.0
2016-Sep-20 13:33N 39°54' W 075°12'0 0.0
2016-Sep-20 10:33N 39°54' W 075°12'0 0.0
2016-Sep-20 08:33N 39°54' W 075°12'0 0.0
2016-Sep-20 07:33N 39°54' W 075°12'0 0.0
2016-Sep-20 06:33N 39°54' W 075°12'  
Track history (hours):
 
Tides and Currents Weather Stations Pressure Air Temp Water Temp Dewpoint Dewpoint Depression Visibility Wind Speed Wind Dir Waves Ship Positions

Edzard Schulte

Last reported at 2016-Sep-30 03:34 UTC. Time now 2016-Sep-30 20:19 UTC.
Position N 43°13' W 079°13'.

Length 145 m; draft 7.1 m.

Type: Tanker. MMSI: 235076245.

Date/timePositionNaut miles runAvg speedWind from/ knotsBaromVisibWave heightAir tempDewpointWater temp
2016-Sep-30 03:34N 43°13' W 079°13'0 0.2
2016-Sep-30 02:24N 43°14' W 079°13'0 0.0
2016-Sep-29 20:30N 43°14' W 079°13'0 0.0
2016-Sep-29 19:30N 43°14' W 079°13'253 9.0
2016-Sep-28 15:20N 45°14' W 074°01'12 4.2
2016-Sep-28 12:33N 45°22' W 073°50'50 5.6
2016-Sep-28 03:33N 46°03' W 073°08'10 9.9
2016-Sep-28 02:33N 46°09' W 072°57'  
2016-Sep-22 04:26N 38°47' W 075°01'910.7
2016-Sep-22 03:34N 38°55' W 075°06'4213.6
2016-Sep-22 00:30N 39°31' W 075°33'1111.8
2016-Sep-21 23:33N 39°42' W 075°31'1010.4
2016-Sep-21 22:33N 39°50' W 075°22'8 2.7
2016-Sep-21 19:33N 39°54' W 075°12'0 0.0
2016-Sep-21 16:30N 39°54' W 075°12'0 0.0
2016-Sep-21 09:33N 39°54' W 075°12'0 0.0
2016-Sep-21 08:33N 39°54' W 075°12'0 0.0
2016-Sep-21 05:33N 39°54' W 075°12'0 0.0
2016-Sep-21 03:33N 39°54' W 075°12'0 0.0
2016-Sep-21 02:33N 39°54' W 075°12'0 0.0
2016-Sep-20 17:33N 39°54' W 075°12'0 0.0
2016-Sep-20 14:33N 39°54' W 075°12'0 0.0
2016-Sep-20 13:33N 39°54' W 075°12'0 0.0
2016-Sep-20 10:33N 39°54' W 075°12'0 0.0
2016-Sep-20 08:33N 39°54' W 075°12'0 0.0
2016-Sep-20 07:33N 39°54' W 075°12'0 0.0
2016-Sep-20 06:33N 39°54' W 075°12'  

Dump ship's entire track history